sensor_id;sensor_type;location;lat;lon;timestamp;temperature;humidity
37285;DHT22;23172;53.550;9.964;2023-05-02T00:01:08;14.90;63.60
37285;DHT22;23172;53.550;9.964;2023-05-02T00:06:12;14.70;65.00
37285;DHT22;23172;53.550;9.964;2023-05-02T00:11:14;14.70;65.20
37285;DHT22;23172;53.550;9.964;2023-05-02T00:16:16;14.70;65.70
37285;DHT22;23172;53.550;9.964;2023-05-02T00:21:19;14.80;66.30
37285;DHT22;23172;53.550;9.964;2023-05-02T00:26:21;14.80;67.20
37285;DHT22;23172;53.550;9.964;2023-05-02T00:31:23;14.80;68.10
37285;DHT22;23172;53.550;9.964;2023-05-02T00:36:26;14.80;69.30
37285;DHT22;23172;53.550;9.964;2023-05-02T00:41:28;14.80;70.60
37285;DHT22;23172;53.550;9.964;2023-05-02T00:46:30;14.80;71.90
37285;DHT22;23172;53.550;9.964;2023-05-02T00:51:33;14.80;72.30
37285;DHT22;23172;53.550;9.964;2023-05-02T00:56:35;14.80;74.80
37285;DHT22;23172;53.550;9.964;2023-05-02T01:01:46;14.80;76.20
37285;DHT22;23172;53.550;9.964;2023-05-02T01:07:05;14.80;76.70
37285;DHT22;23172;53.550;9.964;2023-05-02T01:12:17;14.80;77.70
37285;DHT22;23172;53.550;9.964;2023-05-02T01:17:25;14.80;79.60
37285;DHT22;23172;53.550;9.964;2023-05-02T01:22:30;14.80;79.70
37285;DHT22;23172;53.550;9.964;2023-05-02T01:27:39;14.80;81.60
37285;DHT22;23172;53.550;9.964;2023-05-02T01:32:46;14.60;84.80
37285;DHT22;23172;53.550;9.964;2023-05-02T01:37:50;14.60;85.40
37285;DHT22;23172;53.550;9.964;2023-05-02T01:42:54;14.60;85.80
37285;DHT22;23172;53.550;9.964;2023-05-02T01:47:59;14.60;86.20
37285;DHT22;23172;53.550;9.964;2023-05-02T01:53:03;14.50;87.60
37285;DHT22;23172;53.550;9.964;2023-05-02T01:58:05;14.40;88.80
37285;DHT22;23172;53.550;9.964;2023-05-02T02:03:09;14.30;90.10
37285;DHT22;23172;53.550;9.964;2023-05-02T02:08:12;14.40;90.20
37285;DHT22;23172;53.550;9.964;2023-05-02T02:13:17;14.30;90.80
37285;DHT22;23172;53.550;9.964;2023-05-02T02:18:22;14.20;91.00
37285;DHT22;23172;53.550;9.964;2023-05-02T02:23:27;14.10;91.50
37285;DHT22;23172;53.550;9.964;2023-05-02T02:28:31;14.20;91.70
37285;DHT22;23172;53.550;9.964;2023-05-02T03:04:08;14.10;92.00
37285;DHT22;23172;53.550;9.964;2023-05-02T03:09:14;13.20;91.90
37285;DHT22;23172;53.550;9.964;2023-05-02T03:14:18;13.00;91.70
37285;DHT22;23172;53.550;9.964;2023-05-02T03:19:21;13.00;91.60
37285;DHT22;23172;53.550;9.964;2023-05-02T03:24:23;12.80;91.40
37285;DHT22;23172;53.550;9.964;2023-05-02T03:29:27;12.60;91.00
37285;DHT22;23172;53.550;9.964;2023-05-02T03:34:30;12.40;90.90
37285;DHT22;23172;53.550;9.964;2023-05-02T03:39:32;12.30;90.80
37285;DHT22;23172;53.550;9.964;2023-05-02T03:44:34;12.20;90.80
37285;DHT22;23172;53.550;9.964;2023-05-02T03:49:37;12.00;91.40
37285;DHT22;23172;53.550;9.964;2023-05-02T03:54:39;12.00;91.50
37285;DHT22;23172;53.550;9.964;2023-05-02T03:59:43;12.10;91.10
37285;DHT22;23172;53.550;9.964;2023-05-02T04:04:48;12.00;90.80
37285;DHT22;23172;53.550;9.964;2023-05-02T04:09:50;12.00;90.60
37285;DHT22;23172;53.550;9.964;2023-05-02T04:14:51;11.80;89.40
37285;DHT22;23172;53.550;9.964;2023-05-02T04:19:55;11.80;89.00
37285;DHT22;23172;53.550;9.964;2023-05-02T04:24:57;11.70;87.60
37285;DHT22;23172;53.550;9.964;2023-05-02T04:29:59;11.70;86.40
37285;DHT22;23172;53.550;9.964;2023-05-02T04:35:03;11.60;84.90
37285;DHT22;23172;53.550;9.964;2023-05-02T04:40:06;11.50;83.50
37285;DHT22;23172;53.550;9.964;2023-05-02T04:45:08;11.50;82.60
37285;DHT22;23172;53.550;9.964;2023-05-02T04:50:12;11.50;81.40
37285;DHT22;23172;53.550;9.964;2023-05-02T04:55:14;11.40;80.70
37285;DHT22;23172;53.550;9.964;2023-05-02T05:00:16;11.40;80.00
37285;DHT22;23172;53.550;9.964;2023-05-02T05:05:19;11.40;79.80
37285;DHT22;23172;53.550;9.964;2023-05-02T05:10:21;11.50;78.90
37285;DHT22;23172;53.550;9.964;2023-05-02T05:15:23;11.40;78.60
37285;DHT22;23172;53.550;9.964;2023-05-02T05:20:26;11.60;77.80
37285;DHT22;23172;53.550;9.964;2023-05-02T05:25:28;11.60;76.90
37285;DHT22;23172;53.550;9.964;2023-05-02T05:30:30;11.50;76.10
37285;DHT22;23172;53.550;9.964;2023-05-02T05:35:33;11.50;75.30
37285;DHT22;23172;53.550;9.964;2023-05-02T05:40:35;11.40;74.40
37285;DHT22;23172;53.550;9.964;2023-05-02T05:45:37;11.40;74.10
37285;DHT22;23172;53.550;9.964;2023-05-02T05:50:40;11.50;73.40
37285;DHT22;23172;53.550;9.964;2023-05-02T05:55:42;11.50;72.70
37285;DHT22;23172;53.550;9.964;2023-05-02T06:00:44;11.50;72.40
37285;DHT22;23172;53.550;9.964;2023-05-02T06:05:47;11.40;71.90
37285;DHT22;23172;53.550;9.964;2023-05-02T06:10:49;11.40;71.60
37285;DHT22;23172;53.550;9.964;2023-05-02T06:15:51;11.40;70.80
37285;DHT22;23172;53.550;9.964;2023-05-02T06:20:54;11.30;69.40
37285;DHT22;23172;53.550;9.964;2023-05-02T06:25:58;11.20;67.60
37285;DHT22;23172;53.550;9.964;2023-05-02T06:31:02;11.30;67.70
37285;DHT22;23172;53.550;9.964;2023-05-02T06:36:06;11.50;66.20
37285;DHT22;23172;53.550;9.964;2023-05-02T06:41:11;11.50;65.00
37285;DHT22;23172;53.550;9.964;2023-05-02T06:46:14;11.50;64.40
37285;DHT22;23172;53.550;9.964;2023-05-02T06:51:17;11.30;64.30
37285;DHT22;23172;53.550;9.964;2023-05-02T06:56:20;11.30;63.70
37285;DHT22;23172;53.550;9.964;2023-05-02T07:01:22;11.30;62.50
37285;DHT22;23172;53.550;9.964;2023-05-02T07:06:25;11.40;61.90
37285;DHT22;23172;53.550;9.964;2023-05-02T07:11:27;11.50;60.80
37285;DHT22;23172;53.550;9.964;2023-05-02T07:16:29;11.60;59.90
37285;DHT22;23172;53.550;9.964;2023-05-02T07:21:32;11.60;59.00
37285;DHT22;23172;53.550;9.964;2023-05-02T07:26:34;11.80;58.90
37285;DHT22;23172;53.550;9.964;2023-05-02T07:31:36;11.90;57.90
37285;DHT22;23172;53.550;9.964;2023-05-02T07:36:40;12.00;57.50
37285;DHT22;23172;53.550;9.964;2023-05-02T07:41:42;12.20;56.70
37285;DHT22;23172;53.550;9.964;2023-05-02T07:46:43;12.20;56.10
37285;DHT22;23172;53.550;9.964;2023-05-02T07:51:47;12.20;55.60
37285;DHT22;23172;53.550;9.964;2023-05-02T07:56:48;12.10;55.70
37285;DHT22;23172;53.550;9.964;2023-05-02T08:01:50;12.10;55.40
37285;DHT22;23172;53.550;9.964;2023-05-02T08:06:54;12.30;54.90
37285;DHT22;23172;53.550;9.964;2023-05-02T08:11:56;12.40;54.60
37285;DHT22;23172;53.550;9.964;2023-05-02T08:16:58;12.40;54.00
37285;DHT22;23172;53.550;9.964;2023-05-02T08:22:02;12.50;53.70
37285;DHT22;23172;53.550;9.964;2023-05-02T08:27:04;12.60;53.50
37285;DHT22;23172;53.550;9.964;2023-05-02T08:32:06;12.80;53.20
37285;DHT22;23172;53.550;9.964;2023-05-02T08:37:09;12.80;52.60
37285;DHT22;23172;53.550;9.964;2023-05-02T08:42:11;13.10;52.50
37285;DHT22;23172;53.550;9.964;2023-05-02T08:47:14;13.10;52.20
37285;DHT22;23172;53.550;9.964;2023-05-02T08:52:19;13.40;51.80
37285;DHT22;23172;53.550;9.964;2023-05-02T08:57:21;13.50;51.20
37285;DHT22;23172;53.550;9.964;2023-05-02T09:07:46;14.20;50.60
37285;DHT22;23172;53.550;9.964;2023-05-02T09:12:47;17.10;48.60
37285;DHT22;23172;53.550;9.964;2023-05-02T09:17:49;18.80;44.70
37285;DHT22;23172;53.550;9.964;2023-05-02T09:22:53;18.10;42.80
37285;DHT22;23172;53.550;9.964;2023-05-02T09:27:55;19.10;43.30
37285;DHT22;23172;53.550;9.964;2023-05-02T09:33:00;20.90;40.10
37285;DHT22;23172;53.550;9.964;2023-05-02T09:38:18;19.70;39.10
37285;DHT22;23172;53.550;9.964;2023-05-02T09:43:21;18.80;39.80
37285;DHT22;23172;53.550;9.964;2023-05-02T09:48:23;18.00;40.90
37285;DHT22;23172;53.550;9.964;2023-05-02T09:53:27;20.50;39.30
37285;DHT22;23172;53.550;9.964;2023-05-02T09:58:29;23.90;36.60
37285;DHT22;23172;53.550;9.964;2023-05-02T10:03:35;24.60;33.20
37285;DHT22;23172;53.550;9.964;2023-05-02T10:08:41;22.60;33.80
37285;DHT22;23172;53.550;9.964;2023-05-02T10:13:45;20.50;35.90
37285;DHT22;23172;53.550;9.964;2023-05-02T10:18:51;19.30;37.50
37285;DHT22;23172;53.550;9.964;2023-05-02T10:24:00;18.60;38.60
37285;DHT22;23172;53.550;9.964;2023-05-02T10:29:03;19.40;38.80
37285;DHT22;23172;53.550;9.964;2023-05-02T10:34:05;23.60;35.20
37285;DHT22;23172;53.550;9.964;2023-05-02T10:39:11;25.20;30.70
37285;DHT22;23172;53.550;9.964;2023-05-02T10:44:13;23.30;32.10
37285;DHT22;23172;53.550;9.964;2023-05-02T10:49:15;21.00;34.50
37285;DHT22;23172;53.550;9.964;2023-05-02T10:54:22;19.50;36.00
37285;DHT22;23172;53.550;9.964;2023-05-02T10:59:29;19.30;38.20
37285;DHT22;23172;53.550;9.964;2023-05-02T11:05:02;22.90;34.40
37285;DHT22;23172;53.550;9.964;2023-05-02T11:10:26;21.90;33.60
37285;DHT22;23172;53.550;9.964;2023-05-02T11:15:53;19.80;36.40
37285;DHT22;23172;53.550;9.964;2023-05-02T11:21:25;18.40;38.70
37285;DHT22;23172;53.550;9.964;2023-05-02T11:26:29;17.90;40.10
37285;DHT22;23172;53.550;9.964;2023-05-02T11:31:52;17.00;41.30
37285;DHT22;23172;53.550;9.964;2023-05-02T11:36:55;16.60;42.40
37285;DHT22;23172;53.550;9.964;2023-05-02T11:41:58;16.20;43.20
37285;DHT22;23172;53.550;9.964;2023-05-02T11:47:00;16.20;43.90
37285;DHT22;23172;53.550;9.964;2023-05-02T11:52:02;16.50;44.30
37285;DHT22;23172;53.550;9.964;2023-05-02T11:57:06;17.00;43.30
37285;DHT22;23172;53.550;9.964;2023-05-02T12:02:09;18.10;41.80
37285;DHT22;23172;53.550;9.964;2023-05-02T12:07:11;19.20;40.40
37285;DHT22;23172;53.550;9.964;2023-05-02T12:12:18;19.70;38.60
37285;DHT22;23172;53.550;9.964;2023-05-02T12:17:20;20.20;36.80
37285;DHT22;23172;53.550;9.964;2023-05-02T12:22:23;19.10;37.80
37285;DHT22;23172;53.550;9.964;2023-05-02T12:27:27;20.10;38.50
37285;DHT22;23172;53.550;9.964;2023-05-02T12:32:30;23.70;33.80
37285;DHT22;23172;53.550;9.964;2023-05-02T12:37:31;25.10;30.50
37285;DHT22;23172;53.550;9.964;2023-05-02T12:42:35;23.00;31.10
37285;DHT22;23172;53.550;9.964;2023-05-02T12:47:43;21.00;32.80
37285;DHT22;23172;53.550;9.964;2023-05-02T12:52:47;20.20;34.20
37285;DHT22;23172;53.550;9.964;2023-05-02T12:57:59;19.30;35.10
37285;DHT22;23172;53.550;9.964;2023-05-02T13:03:01;18.40;36.00
37285;DHT22;23172;53.550;9.964;2023-05-02T13:08:03;18.20;36.80
37285;DHT22;23172;53.550;9.964;2023-05-02T13:13:06;17.80;37.50
37285;DHT22;23172;53.550;9.964;2023-05-02T13:18:08;17.50;37.80
37285;DHT22;23172;53.550;9.964;2023-05-02T13:23:10;17.10;39.30
37285;DHT22;23172;53.550;9.964;2023-05-02T13:28:14;16.50;40.90
37285;DHT22;23172;53.550;9.964;2023-05-02T13:33:15;16.10;41.90
37285;DHT22;23172;53.550;9.964;2023-05-02T13:38:17;16.50;42.80
37285;DHT22;23172;53.550;9.964;2023-05-02T13:43:20;16.40;42.60
37285;DHT22;23172;53.550;9.964;2023-05-02T13:48:23;15.90;43.30
37285;DHT22;23172;53.550;9.964;2023-05-02T13:53:25;15.60;44.00
37285;DHT22;23172;53.550;9.964;2023-05-02T13:58:29;15.30;44.70
37285;DHT22;23172;53.550;9.964;2023-05-02T14:03:30;15.10;45.30
37285;DHT22;23172;53.550;9.964;2023-05-02T14:08:32;14.90;46.10
37285;DHT22;23172;53.550;9.964;2023-05-02T14:13:36;14.60;46.90
37285;DHT22;23172;53.550;9.964;2023-05-02T14:18:38;14.20;47.50
37285;DHT22;23172;53.550;9.964;2023-05-02T14:23:39;14.20;48.20
37285;DHT22;23172;53.550;9.964;2023-05-02T14:28:43;14.80;48.50
37285;DHT22;23172;53.550;9.964;2023-05-02T14:33:45;15.30;47.40
37285;DHT22;23172;53.550;9.964;2023-05-02T14:38:47;15.50;46.90
37285;DHT22;23172;53.550;9.964;2023-05-02T14:43:51;15.40;46.70
37285;DHT22;23172;53.550;9.964;2023-05-02T14:48:53;15.60;46.50
37285;DHT22;23172;53.550;9.964;2023-05-02T14:53:55;15.80;45.30
37285;DHT22;23172;53.550;9.964;2023-05-02T14:58:59;15.30;45.40
37285;DHT22;23172;53.550;9.964;2023-05-02T15:04:00;14.90;46.10
37285;DHT22;23172;53.550;9.964;2023-05-02T15:09:02;14.60;46.50
37285;DHT22;23172;53.550;9.964;2023-05-02T15:14:06;14.60;46.50
37285;DHT22;23172;53.550;9.964;2023-05-02T15:19:08;14.70;46.50
37285;DHT22;23172;53.550;9.964;2023-05-02T15:24:10;14.80;46.40
37285;DHT22;23172;53.550;9.964;2023-05-02T15:29:13;14.70;47.30
37285;DHT22;23172;53.550;9.964;2023-05-02T15:34:15;14.70;46.70
37285;DHT22;23172;53.550;9.964;2023-05-02T15:39:17;14.50;46.90
37285;DHT22;23172;53.550;9.964;2023-05-02T15:44:21;14.40;47.30
37285;DHT22;23172;53.550;9.964;2023-05-02T15:49:22;14.40;47.10
37285;DHT22;23172;53.550;9.964;2023-05-02T15:54:31;14.20;47.50
37285;DHT22;23172;53.550;9.964;2023-05-02T15:59:34;14.10;47.90
37285;DHT22;23172;53.550;9.964;2023-05-02T16:04:36;14.10;47.80
37285;DHT22;23172;53.550;9.964;2023-05-02T16:09:37;14.00;47.70
37285;DHT22;23172;53.550;9.964;2023-05-02T16:14:42;13.80;47.80
37285;DHT22;23172;53.550;9.964;2023-05-02T16:19:44;13.80;48.00
37285;DHT22;23172;53.550;9.964;2023-05-02T16:24:46;13.60;48.00
37285;DHT22;23172;53.550;9.964;2023-05-02T16:29:49;13.60;47.80
37285;DHT22;23172;53.550;9.964;2023-05-02T16:34:51;13.60;47.30
37285;DHT22;23172;53.550;9.964;2023-05-02T16:39:53;13.40;47.30
37285;DHT22;23172;53.550;9.964;2023-05-02T16:44:58;13.20;47.70
37285;DHT22;23172;53.550;9.964;2023-05-02T16:50:00;13.10;47.80
37285;DHT22;23172;53.550;9.964;2023-05-02T16:55:02;13.10;47.50
37285;DHT22;23172;53.550;9.964;2023-05-02T17:00:07;13.00;47.50
37285;DHT22;23172;53.550;9.964;2023-05-02T17:05:10;13.00;47.50
37285;DHT22;23172;53.550;9.964;2023-05-02T17:10:12;12.90;47.50
37285;DHT22;23172;53.550;9.964;2023-05-02T17:15:16;12.90;47.70
37285;DHT22;23172;53.550;9.964;2023-05-02T17:20:17;12.90;48.10
37285;DHT22;23172;53.550;9.964;2023-05-02T17:25:19;12.90;48.30
37285;DHT22;23172;53.550;9.964;2023-05-02T17:30:23;12.90;48.10
37285;DHT22;23172;53.550;9.964;2023-05-02T17:35:25;12.80;48.40
37285;DHT22;23172;53.550;9.964;2023-05-02T17:40:27;12.80;48.70
37285;DHT22;23172;53.550;9.964;2023-05-02T17:45:31;12.90;48.90
37285;DHT22;23172;53.550;9.964;2023-05-02T17:50:35;12.80;49.10
37285;DHT22;23172;53.550;9.964;2023-05-02T17:55:38;12.70;49.30
37285;DHT22;23172;53.550;9.964;2023-05-02T18:00:41;12.60;49.50
37285;DHT22;23172;53.550;9.964;2023-05-02T18:05:43;12.60;49.70
37285;DHT22;23172;53.550;9.964;2023-05-02T18:10:47;12.50;49.90
37285;DHT22;23172;53.550;9.964;2023-05-02T18:15:55;12.50;50.00
37285;DHT22;23172;53.550;9.964;2023-05-02T18:20:57;12.40;50.20
37285;DHT22;23172;53.550;9.964;2023-05-02T18:25:59;12.30;50.50
37285;DHT22;23172;53.550;9.964;2023-05-02T18:31:03;12.30;50.50
37285;DHT22;23172;53.550;9.964;2023-05-02T18:36:05;12.30;50.50
37285;DHT22;23172;53.550;9.964;2023-05-02T18:41:07;12.30;50.60
37285;DHT22;23172;53.550;9.964;2023-05-02T18:46:11;12.30;50.80
37285;DHT22;23172;53.550;9.964;2023-05-02T18:51:13;12.20;51.00
37285;DHT22;23172;53.550;9.964;2023-05-02T18:56:15;12.20;51.20
37285;DHT22;23172;53.550;9.964;2023-05-02T19:01:19;12.10;50.90
37285;DHT22;23172;53.550;9.964;2023-05-02T19:06:21;11.90;50.80
37285;DHT22;23172;53.550;9.964;2023-05-02T19:11:23;11.90;51.20
37285;DHT22;23172;53.550;9.964;2023-05-02T19:16:27;11.80;51.70
37285;DHT22;23172;53.550;9.964;2023-05-02T19:21:32;11.80;52.30
37285;DHT22;23172;53.550;9.964;2023-05-02T19:26:34;11.70;54.00
37285;DHT22;23172;53.550;9.964;2023-05-02T19:31:38;11.60;53.80
37285;DHT22;23172;53.550;9.964;2023-05-02T19:36:42;11.70;54.40
37285;DHT22;23172;53.550;9.964;2023-05-02T19:41:43;11.60;54.90
37285;DHT22;23172;53.550;9.964;2023-05-02T19:46:48;11.60;55.10
37285;DHT22;23172;53.550;9.964;2023-05-02T19:51:50;11.60;55.40
37285;DHT22;23172;53.550;9.964;2023-05-02T19:56:52;11.50;55.80
37285;DHT22;23172;53.550;9.964;2023-05-02T20:01:55;11.40;56.10
37285;DHT22;23172;53.550;9.964;2023-05-02T20:06:57;11.30;56.50
37285;DHT22;23172;53.550;9.964;2023-05-02T20:11:59;11.30;56.70
37285;DHT22;23172;53.550;9.964;2023-05-02T20:17:02;11.20;56.80
37285;DHT22;23172;53.550;9.964;2023-05-02T20:22:04;11.20;56.90
37285;DHT22;23172;53.550;9.964;2023-05-02T20:27:06;11.10;57.10
37285;DHT22;23172;53.550;9.964;2023-05-02T20:32:10;11.10;57.10
37285;DHT22;23172;53.550;9.964;2023-05-02T20:37:12;11.00;57.40
37285;DHT22;23172;53.550;9.964;2023-05-02T20:42:14;11.00;57.50
37285;DHT22;23172;53.550;9.964;2023-05-02T20:47:24;10.90;57.50
37285;DHT22;23172;53.550;9.964;2023-05-02T20:52:26;10.80;57.60
37285;DHT22;23172;53.550;9.964;2023-05-02T20:57:28;10.80;57.90
37285;DHT22;23172;53.550;9.964;2023-05-02T21:02:32;10.70;58.80
37285;DHT22;23172;53.550;9.964;2023-05-02T21:07:33;10.70;58.40
37285;DHT22;23172;53.550;9.964;2023-05-02T21:12:35;10.60;58.60
37285;DHT22;23172;53.550;9.964;2023-05-02T21:17:39;10.60;58.80
37285;DHT22;23172;53.550;9.964;2023-05-02T21:22:41;10.60;58.80
37285;DHT22;23172;53.550;9.964;2023-05-02T21:27:45;10.50;59.00
37285;DHT22;23172;53.550;9.964;2023-05-02T21:32:49;10.50;59.00
37285;DHT22;23172;53.550;9.964;2023-05-02T21:37:51;10.50;59.20
37285;DHT22;23172;53.550;9.964;2023-05-02T21:42:53;10.40;59.10
37285;DHT22;23172;53.550;9.964;2023-05-02T21:47:56;10.40;59.10
37285;DHT22;23172;53.550;9.964;2023-05-02T21:52:58;10.40;59.20
37285;DHT22;23172;53.550;9.964;2023-05-02T21:58:01;10.30;59.50
37285;DHT22;23172;53.550;9.964;2023-05-02T22:03:05;10.30;59.70
37285;DHT22;23172;53.550;9.964;2023-05-02T22:08:09;10.30;59.90
37285;DHT22;23172;53.550;9.964;2023-05-02T22:13:13;10.20;60.10
37285;DHT22;23172;53.550;9.964;2023-05-02T22:18:17;10.20;60.30
37285;DHT22;23172;53.550;9.964;2023-05-02T22:23:19;10.20;60.50
37285;DHT22;23172;53.550;9.964;2023-05-02T22:28:21;10.10;60.90
37285;DHT22;23172;53.550;9.964;2023-05-02T22:33:24;10.10;61.10
37285;DHT22;23172;53.550;9.964;2023-05-02T22:38:26;10.10;61.40
37285;DHT22;23172;53.550;9.964;2023-05-02T22:43:29;10.00;61.20
37285;DHT22;23172;53.550;9.964;2023-05-02T22:48:32;10.00;61.40
37285;DHT22;23172;53.550;9.964;2023-05-02T22:53:34;10.00;61.70
37285;DHT22;23172;53.550;9.964;2023-05-02T22:58:36;9.90;62.00
37285;DHT22;23172;53.550;9.964;2023-05-02T23:03:41;9.90;62.30
37285;DHT22;23172;53.550;9.964;2023-05-02T23:08:43;9.90;63.00
37285;DHT22;23172;53.550;9.964;2023-05-02T23:13:45;9.80;62.40
37285;DHT22;23172;53.550;9.964;2023-05-02T23:18:48;9.80;62.50
37285;DHT22;23172;53.550;9.964;2023-05-02T23:23:50;9.80;62.60
37285;DHT22;23172;53.550;9.964;2023-05-02T23:28:52;9.80;62.60
37285;DHT22;23172;53.550;9.964;2023-05-02T23:51:46;9.70;63.70
37285;DHT22;23172;53.550;9.964;2023-05-02T23:56:47;9.60;63.60
